createdAt,value
2018-08-24T00:00:15.625Z,19.17
2018-08-24T00:02:43.191Z,18.50
2018-08-24T00:05:10.729Z,17.80
2018-08-24T00:07:38.314Z,20.37
2018-08-24T00:10:05.920Z,19.10
2018-08-24T00:12:33.459Z,20.13
2018-08-24T00:15:00.945Z,19.00
2018-08-24T00:17:29.864Z,18.93
2018-08-24T00:19:57.627Z,18.80
2018-08-24T00:22:25.188Z,18.83
2018-08-24T00:24:52.756Z,19.27
2018-08-24T00:27:21.136Z,18.50
2018-08-24T00:29:48.665Z,19.77
2018-08-24T00:32:16.235Z,19.00
2018-08-24T00:34:43.828Z,19.13
2018-08-24T00:37:11.400Z,20.93
2018-08-24T00:39:41.466Z,32.03
2018-08-24T00:42:08.960Z,59.30
2018-08-24T00:44:36.618Z,72.90
2018-08-24T00:47:04.116Z,91.57
2018-08-24T00:49:31.628Z,59.90
2018-08-24T00:51:59.182Z,34.20
2018-08-24T00:54:27.546Z,25.43
2018-08-24T00:56:55.053Z,24.37
2018-08-24T00:59:22.562Z,19.90
2018-08-24T01:01:50.044Z,18.93
2018-08-24T01:04:23.142Z,17.97
2018-08-24T01:06:50.834Z,22.80
2018-08-24T01:09:18.370Z,36.83
2018-08-24T01:11:51.569Z,46.70
2018-08-24T01:14:19.184Z,54.80
2018-08-24T01:16:52.210Z,51.60
2018-08-24T01:19:19.767Z,43.00
2018-08-24T01:21:47.394Z,35.50
2018-08-24T01:24:15.364Z,35.07
2018-08-24T01:26:47.501Z,24.23
2018-08-24T01:29:15.146Z,27.07
2018-08-24T01:31:42.638Z,22.13
2018-08-24T01:34:10.140Z,18.37
2018-08-24T01:36:37.625Z,15.67
2018-08-24T01:39:06.436Z,17.10
2018-08-24T01:41:33.943Z,17.97
2018-08-24T01:44:01.466Z,14.30
2018-08-24T01:46:29.014Z,15.07
2018-08-24T01:48:56.480Z,14.70
2018-08-24T01:51:23.960Z,17.73
2018-08-24T01:53:51.431Z,18.23
2018-08-24T01:56:18.950Z,23.37
2018-08-24T01:58:46.470Z,23.13
2018-08-24T02:01:14.024Z,24.20
2018-08-24T02:03:41.534Z,21.97
2018-08-24T02:06:09.028Z,23.80
2018-08-24T02:08:37.282Z,19.13
2018-08-24T02:11:10.922Z,19.70
2018-08-24T02:13:45.670Z,14.43
2018-08-24T02:16:13.218Z,13.87
2018-08-24T02:18:46.252Z,12.73
2018-08-24T02:21:19.397Z,12.33
2018-08-24T02:23:46.906Z,12.40
2018-08-24T02:26:14.418Z,14.80
2018-08-24T02:28:41.918Z,19.90
2018-08-24T02:31:09.464Z,25.80
2018-08-24T02:33:37.676Z,28.40
2018-08-24T02:36:05.313Z,26.03
2018-08-24T02:38:32.852Z,24.70
2018-08-24T02:41:00.342Z,19.57
2018-08-24T02:43:27.900Z,20.03
2018-08-24T02:45:55.390Z,17.30
2018-08-24T02:48:22.918Z,20.10
2018-08-24T02:50:50.481Z,24.63
2018-08-24T02:53:18.002Z,23.43
2018-08-24T02:55:45.553Z,26.20
2018-08-24T02:58:13.053Z,27.97
2018-08-24T03:00:40.541Z,28.00
2018-08-24T03:03:08.043Z,18.07
2018-08-24T03:05:35.707Z,15.10
2018-08-24T03:08:03.141Z,15.40
2018-08-24T03:10:30.635Z,15.27
2018-08-24T03:12:58.159Z,13.27
2018-08-24T03:15:25.643Z,11.60
2018-08-24T03:17:53.831Z,9.93
2018-08-24T03:20:22.019Z,9.33
2018-08-24T03:22:49.526Z,9.03
2018-08-24T03:25:17.067Z,9.60
2018-08-24T03:27:44.588Z,8.80
2018-08-24T03:30:12.101Z,9.47
2018-08-24T03:32:39.655Z,9.73
2018-08-24T03:35:07.197Z,8.60
2018-08-24T03:37:34.717Z,9.00
2018-08-24T03:40:02.225Z,9.50
2018-08-24T03:42:29.727Z,9.70
2018-08-24T03:44:57.255Z,9.10
2018-08-24T03:47:24.761Z,9.43
2018-08-24T03:49:52.297Z,8.60
2018-08-24T03:52:19.851Z,9.43
2018-08-24T03:54:47.360Z,9.60
2018-08-24T03:57:14.865Z,10.47
2018-08-24T03:59:42.333Z,9.50
2018-08-24T04:02:11.355Z,8.07
2018-08-24T04:04:39.078Z,9.00
2018-08-24T04:07:06.649Z,8.50
2018-08-24T04:09:34.189Z,9.00
2018-08-24T04:12:01.685Z,8.20
2018-08-24T04:14:29.175Z,8.70
2018-08-24T04:17:02.354Z,8.33
2018-08-24T04:19:29.979Z,8.20
2018-08-24T04:21:57.811Z,9.47
2018-08-24T04:24:25.339Z,8.00
2018-08-24T04:26:53.574Z,8.70
2018-08-24T04:29:21.432Z,7.80
2018-08-24T04:31:48.962Z,7.80
2018-08-24T04:34:16.488Z,7.60
2018-08-24T04:36:43.998Z,7.10
2018-08-24T04:39:12.268Z,8.13
2018-08-24T04:41:40.467Z,7.53
2018-08-24T04:44:08.425Z,8.10
2018-08-24T04:46:36.007Z,7.33
2018-08-24T04:49:03.689Z,8.10
2018-08-24T04:51:31.428Z,7.73
2018-08-24T04:53:58.957Z,7.50
2018-08-24T04:56:26.867Z,8.57
2018-08-24T04:58:54.359Z,8.23
2018-08-24T05:01:21.873Z,6.83
2018-08-24T05:03:49.409Z,7.50
2018-08-24T05:06:16.987Z,6.33
2018-08-24T05:08:44.492Z,7.10
2018-08-24T05:11:12.029Z,6.77
2018-08-24T05:13:39.569Z,6.03
2018-08-24T05:16:07.072Z,6.97
2018-08-24T05:18:34.613Z,5.43
2018-08-24T05:21:02.264Z,7.20
2018-08-24T05:23:29.801Z,6.20
2018-08-24T05:25:57.362Z,6.90
2018-08-24T05:28:24.861Z,7.00
2018-08-24T05:30:52.391Z,6.40
2018-08-24T05:33:19.981Z,6.50
2018-08-24T05:35:47.489Z,6.23
2018-08-24T05:38:14.933Z,6.37
2018-08-24T05:40:42.467Z,7.23
2018-08-24T05:43:09.997Z,6.50
2018-08-24T05:45:37.483Z,8.10
2018-08-24T05:48:04.984Z,7.60
2018-08-24T05:50:32.557Z,8.10
2018-08-24T05:53:00.102Z,8.73
2018-08-24T05:55:27.662Z,13.53
2018-08-24T05:57:55.295Z,14.27
2018-08-24T06:00:28.494Z,12.30
2018-08-24T06:02:56.017Z,8.67
2018-08-24T06:05:23.643Z,8.30
2018-08-24T06:07:51.199Z,8.07
2018-08-24T06:10:19.062Z,6.87
2018-08-24T06:12:46.561Z,7.20
2018-08-24T06:15:14.086Z,7.53
2018-08-24T06:17:47.077Z,9.50
2018-08-24T06:20:14.587Z,10.43
2018-08-24T06:22:42.062Z,6.73
2018-08-24T06:25:09.666Z,9.67
2018-08-24T06:27:37.154Z,11.13
2018-08-24T06:30:05.341Z,15.53
2018-08-24T06:32:32.867Z,11.97
2018-08-24T06:35:00.408Z,12.40
2018-08-24T06:37:27.931Z,18.00
2018-08-24T06:39:55.532Z,15.90
2018-08-24T06:42:23.058Z,11.47
2018-08-24T06:44:50.645Z,9.53
2018-08-24T06:47:18.363Z,8.37
2018-08-24T06:49:45.902Z,8.80
2018-08-24T06:52:13.448Z,10.53
2018-08-24T06:54:41.162Z,15.97
2018-08-24T06:57:08.681Z,15.60
2018-08-24T06:59:36.199Z,15.17
2018-08-24T07:02:03.731Z,13.07
2018-08-24T07:04:31.225Z,9.20
2018-08-24T07:06:58.766Z,8.00
2018-08-24T07:09:26.347Z,7.20
2018-08-24T07:11:53.904Z,9.00
2018-08-24T07:14:21.473Z,6.90
2018-08-24T07:16:53.529Z,6.83
2018-08-24T07:19:21.025Z,6.40
2018-08-24T07:21:48.586Z,6.43
2018-08-24T07:24:16.101Z,6.13
2018-08-24T07:26:43.638Z,6.37
2018-08-24T07:29:11.113Z,6.27
2018-08-24T07:31:38.620Z,7.00
2018-08-24T07:34:06.156Z,6.27
2018-08-24T07:36:33.661Z,6.23
2018-08-24T07:39:01.230Z,5.70
2018-08-24T07:41:28.856Z,5.53
2018-08-24T07:43:56.408Z,5.50
2018-08-24T07:46:24.043Z,5.00
2018-08-24T07:48:51.549Z,6.00
2018-08-24T07:51:19.071Z,6.27
2018-08-24T07:53:46.647Z,6.43
2018-08-24T07:56:14.219Z,6.40
2018-08-24T07:58:41.809Z,5.93
2018-08-24T08:01:09.410Z,6.57
2018-08-24T08:03:36.973Z,5.70
2018-08-24T08:06:04.597Z,5.77
2018-08-24T08:08:32.202Z,6.20
2018-08-24T08:10:59.724Z,5.87
2018-08-24T08:13:27.271Z,6.40
2018-08-24T08:15:54.868Z,5.27
2018-08-24T08:18:22.392Z,5.90
2018-08-24T08:20:49.946Z,5.60
2018-08-24T08:23:17.519Z,5.90
2018-08-24T08:25:45.034Z,5.70
2018-08-24T08:28:12.630Z,5.90
2018-08-24T08:30:40.200Z,6.10
2018-08-24T08:33:07.812Z,5.67
2018-08-24T08:35:35.336Z,6.20
2018-08-24T08:38:02.942Z,6.27
2018-08-24T08:40:30.469Z,5.57
2018-08-24T08:42:57.978Z,5.17
2018-08-24T08:45:25.630Z,5.60
2018-08-24T08:47:53.092Z,5.13
2018-08-24T08:50:20.643Z,5.13
2018-08-24T08:52:48.155Z,5.10
2018-08-24T08:55:15.753Z,5.80
2018-08-24T08:57:43.266Z,5.90
2018-08-24T09:00:10.852Z,5.67
2018-08-24T09:02:38.413Z,6.20
2018-08-24T09:05:06.212Z,6.10
2018-08-24T09:07:33.799Z,6.00
2018-08-24T09:10:01.368Z,6.33
2018-08-24T09:12:28.913Z,6.27
2018-08-24T09:14:56.479Z,5.80
2018-08-24T09:19:35.123Z,6.33
2018-08-24T09:22:08.370Z,7.60
2018-08-24T09:24:41.413Z,7.50
2018-08-24T09:27:14.750Z,7.90
2018-08-24T09:29:42.300Z,7.60
2018-08-24T09:32:09.868Z,8.50
2018-08-24T09:34:37.474Z,8.00
2018-08-24T09:37:09.828Z,7.07
2018-08-24T09:39:37.469Z,7.00
2018-08-24T09:42:04.993Z,8.10
2018-08-24T09:44:32.524Z,7.40
2018-08-24T09:47:05.681Z,7.70
2018-08-24T09:49:35.283Z,7.90
2018-08-24T09:52:08.464Z,8.30
2018-08-24T09:54:35.976Z,8.03
2018-08-24T09:57:03.623Z,7.77
2018-08-24T09:59:31.166Z,8.10
2018-08-24T10:02:04.291Z,8.07
2018-08-24T10:04:37.517Z,8.80
2018-08-24T10:07:10.679Z,8.60
2018-08-24T10:09:38.396Z,9.40
2018-08-24T10:12:05.955Z,9.30
2018-08-24T10:14:33.525Z,12.00
2018-08-24T10:17:01.157Z,11.20
2018-08-24T10:19:28.783Z,11.00
2018-08-24T10:21:56.320Z,10.20
2018-08-24T10:24:23.847Z,10.13
2018-08-24T10:26:51.485Z,10.90
2018-08-24T10:29:19.062Z,9.83
2018-08-24T10:31:46.556Z,9.97
2018-08-24T10:34:14.091Z,8.40
2018-08-24T10:36:41.691Z,8.13
2018-08-24T10:39:10.320Z,7.63
2018-08-24T10:41:37.795Z,7.93
2018-08-24T10:44:05.561Z,7.90
2018-08-24T10:46:33.087Z,7.80
2018-08-24T10:49:00.869Z,7.20
2018-08-24T10:51:28.463Z,6.60
2018-08-24T10:53:55.994Z,6.77
2018-08-24T10:56:23.515Z,6.40
2018-08-24T10:58:51.051Z,6.83
2018-08-24T11:01:18.613Z,7.57
2018-08-24T11:03:46.175Z,6.90
2018-08-24T11:06:13.682Z,8.70
2018-08-24T11:08:41.236Z,8.60
2018-08-24T11:11:08.865Z,8.30
2018-08-24T11:13:36.478Z,10.50
2018-08-24T11:16:04.043Z,10.20
2018-08-24T11:18:31.606Z,12.67
2018-08-24T11:20:59.130Z,11.00
2018-08-24T11:23:27.505Z,12.33
2018-08-24T11:25:55.075Z,14.03
2018-08-24T11:28:22.573Z,9.73
2018-08-24T11:30:50.152Z,10.33
2018-08-24T11:33:17.726Z,11.00
2018-08-24T11:35:45.307Z,12.10
2018-08-24T11:38:13.084Z,10.43
2018-08-24T11:40:40.699Z,10.90
2018-08-24T11:43:08.357Z,10.93
2018-08-24T11:45:36.014Z,10.03
2018-08-24T11:48:03.786Z,8.90
2018-08-24T11:50:31.436Z,8.50
2018-08-24T11:52:59.029Z,10.00
2018-08-24T11:55:26.736Z,9.80
2018-08-24T11:57:54.282Z,9.03
2018-08-24T12:00:27.658Z,9.93
2018-08-24T12:02:55.272Z,11.10
2018-08-24T12:05:22.840Z,12.77
2018-08-24T12:07:50.514Z,12.33
2018-08-24T12:10:18.140Z,10.80
2018-08-24T12:12:45.720Z,10.43
2018-08-24T12:15:13.397Z,10.03
2018-08-24T12:17:41.069Z,10.50
2018-08-24T12:20:08.878Z,8.70
2018-08-24T12:22:36.486Z,9.10
2018-08-24T12:25:04.140Z,8.97
2018-08-24T12:27:31.738Z,9.60
2018-08-24T12:29:59.344Z,10.27
2018-08-24T12:32:26.982Z,11.20
2018-08-24T12:35:01.416Z,9.00
2018-08-24T12:37:31.613Z,10.13
2018-08-24T12:39:59.284Z,10.30
2018-08-24T12:42:26.887Z,9.70
2018-08-24T12:44:54.480Z,10.57
2018-08-24T12:47:22.197Z,10.80
2018-08-24T12:49:49.767Z,10.00
2018-08-24T12:52:17.373Z,8.33
2018-08-24T12:54:44.937Z,5.67
2018-08-24T12:57:12.507Z,3.87
2018-08-24T12:59:40.084Z,3.47
2018-08-24T13:02:07.681Z,2.50
2018-08-24T13:04:35.352Z,2.37
2018-08-24T13:07:02.883Z,2.70
2018-08-24T13:09:30.482Z,2.37
2018-08-24T13:11:58.023Z,2.43
2018-08-24T13:14:25.660Z,3.10
2018-08-24T13:16:53.222Z,2.40
2018-08-24T13:19:20.827Z,2.70
2018-08-24T13:21:48.353Z,3.77
2018-08-24T13:24:15.976Z,2.90
2018-08-24T13:26:43.590Z,3.23
2018-08-24T13:29:11.123Z,3.60
2018-08-24T13:31:38.698Z,4.57
2018-08-24T13:34:06.317Z,3.80
2018-08-24T13:36:33.895Z,4.40
2018-08-24T13:39:01.672Z,4.60
2018-08-24T13:41:29.208Z,4.20
2018-08-24T13:43:56.781Z,4.67
2018-08-24T13:46:24.369Z,6.00
2018-08-24T13:48:51.948Z,5.73
2018-08-24T13:51:19.616Z,5.17
2018-08-24T13:53:47.197Z,5.70
2018-08-24T13:56:14.993Z,5.37
2018-08-24T13:58:42.649Z,4.83
2018-08-24T14:01:11.203Z,4.67
2018-08-24T14:03:38.837Z,4.60
2018-08-24T14:06:06.552Z,4.00
2018-08-24T14:08:34.172Z,3.97
2018-08-24T14:11:01.800Z,4.00
2018-08-24T14:13:29.598Z,4.93
2018-08-24T14:15:57.169Z,4.87
2018-08-24T14:18:24.856Z,5.10
2018-08-24T14:20:52.481Z,4.80
2018-08-24T14:23:20.020Z,5.27
2018-08-24T14:25:47.608Z,4.40
2018-08-24T14:28:15.166Z,5.10
2018-08-24T14:30:42.734Z,4.70
2018-08-24T14:33:10.347Z,6.10
2018-08-24T14:35:37.884Z,5.87
2018-08-24T14:38:05.481Z,6.30
2018-08-24T14:40:33.088Z,5.23
2018-08-24T14:43:00.678Z,6.40
2018-08-24T14:45:28.232Z,5.60
2018-08-24T14:47:56.074Z,5.23
2018-08-24T14:50:23.907Z,6.80
2018-08-24T14:52:51.568Z,6.37
2018-08-24T14:55:19.157Z,5.83
2018-08-24T14:57:46.719Z,5.83
2018-08-24T15:00:14.325Z,6.40
2018-08-24T15:02:41.978Z,6.50
2018-08-24T15:05:10.831Z,5.30
2018-08-24T15:07:38.500Z,5.73
2018-08-24T15:10:06.561Z,5.47
2018-08-24T15:12:34.078Z,5.20
2018-08-24T15:15:01.730Z,6.30
2018-08-24T15:17:31.066Z,6.30
2018-08-24T15:19:58.966Z,6.43
2018-08-24T15:22:26.541Z,7.23
2018-08-24T15:24:54.141Z,8.13
2018-08-24T15:27:21.694Z,8.43
2018-08-24T15:29:49.304Z,8.37
2018-08-24T15:32:16.818Z,9.10
2018-08-24T15:34:44.358Z,8.83
2018-08-24T15:37:11.880Z,9.67
2018-08-24T15:39:39.421Z,8.90
2018-08-24T15:42:06.963Z,8.63
2018-08-24T15:44:34.529Z,10.43
2018-08-24T15:47:02.138Z,10.53
2018-08-24T15:49:29.765Z,11.60
2018-08-24T15:51:57.295Z,10.63
2018-08-24T15:54:24.930Z,9.77
2018-08-24T15:56:52.464Z,10.80
2018-08-24T15:59:20.040Z,11.13
2018-08-24T16:01:47.661Z,11.03
2018-08-24T16:04:15.237Z,10.47
2018-08-24T16:06:42.867Z,10.17
2018-08-24T16:09:10.998Z,9.80
2018-08-24T16:11:38.761Z,9.77
2018-08-24T16:14:06.393Z,9.80
2018-08-24T16:16:34.010Z,10.30
2018-08-24T16:19:01.528Z,9.60
2018-08-24T16:21:29.127Z,9.17
2018-08-24T16:23:56.704Z,10.50
2018-08-24T16:26:25.053Z,9.93
2018-08-24T16:28:53.062Z,8.70
2018-08-24T16:31:20.847Z,9.00
2018-08-24T16:33:48.515Z,9.50
2018-08-24T16:36:16.077Z,10.03
2018-08-24T16:38:43.719Z,9.03
2018-08-24T16:41:11.311Z,8.93
2018-08-24T16:43:38.911Z,9.00
2018-08-24T16:46:06.495Z,8.63
2018-08-24T16:48:34.261Z,8.37
2018-08-24T16:51:01.770Z,8.97
2018-08-24T16:53:29.527Z,8.57
2018-08-24T16:55:57.113Z,9.30
2018-08-24T16:58:24.765Z,9.10
2018-08-24T17:00:52.301Z,9.70
2018-08-24T17:03:19.882Z,9.77
2018-08-24T17:05:47.394Z,9.33
2018-08-24T17:08:14.928Z,9.77
2018-08-24T17:10:42.425Z,9.33
2018-08-24T17:13:09.939Z,10.30
2018-08-24T17:15:37.492Z,9.63
2018-08-24T17:18:05.631Z,9.47
2018-08-24T17:20:33.183Z,7.80
2018-08-24T17:23:00.767Z,8.57
2018-08-24T17:25:28.351Z,8.50
2018-08-24T17:27:55.938Z,8.73
2018-08-24T17:30:23.564Z,9.00
2018-08-24T17:32:51.138Z,9.60
2018-08-24T17:35:18.668Z,9.33
2018-08-24T17:37:46.303Z,8.23
2018-08-24T17:40:13.894Z,8.77
2018-08-24T17:42:41.463Z,7.37
2018-08-24T17:45:09.869Z,8.43
2018-08-24T17:47:37.652Z,7.43
2018-08-24T17:50:05.471Z,7.60
2018-08-24T17:52:33.050Z,8.10
2018-08-24T17:55:00.623Z,8.77
2018-08-24T17:57:28.183Z,7.93
2018-08-24T17:59:55.726Z,8.87
2018-08-24T18:02:23.366Z,8.50
2018-08-24T18:04:50.998Z,9.00
2018-08-24T18:07:18.605Z,8.47
2018-08-24T18:09:46.204Z,8.17
2018-08-24T18:12:13.941Z,8.37
2018-08-24T18:14:41.499Z,7.53
2018-08-24T18:17:09.048Z,8.20
2018-08-24T18:19:36.663Z,7.53
2018-08-24T18:22:04.248Z,9.07
2018-08-24T18:24:31.916Z,8.00
2018-08-24T18:26:59.448Z,8.80
2018-08-24T18:29:27.024Z,7.73
2018-08-24T18:31:54.542Z,8.67
2018-08-24T18:34:22.193Z,7.90
2018-08-24T18:36:49.752Z,7.40
2018-08-24T18:39:17.364Z,7.53
2018-08-24T18:41:45.013Z,8.40
2018-08-24T18:44:12.575Z,7.93
2018-08-24T18:46:40.158Z,7.87
2018-08-24T18:49:07.678Z,7.30
2018-08-24T18:51:35.200Z,8.53
2018-08-24T18:54:04.010Z,8.30
2018-08-24T18:56:31.755Z,7.67
2018-08-24T18:58:59.393Z,7.63
2018-08-24T19:01:26.960Z,7.20
2018-08-24T19:03:54.591Z,7.27
2018-08-24T19:06:22.274Z,7.57
2018-08-24T19:08:49.858Z,7.77
2018-08-24T19:11:22.893Z,7.07
2018-08-24T19:13:50.544Z,7.90
2018-08-24T19:16:18.207Z,7.40
2018-08-24T19:18:51.468Z,8.03
2018-08-24T19:21:24.643Z,7.40
2018-08-24T19:23:52.353Z,7.43
2018-08-24T19:26:19.953Z,7.40
2018-08-24T19:28:53.218Z,8.10
2018-08-24T19:31:20.765Z,7.60
2018-08-24T19:33:48.302Z,7.20
2018-08-24T19:36:15.912Z,8.33
2018-08-24T19:38:43.492Z,8.40
2018-08-24T19:41:16.848Z,8.50
2018-08-24T19:43:44.497Z,8.33
2018-08-24T19:46:12.013Z,8.30
2018-08-24T19:48:45.276Z,7.90
2018-08-24T19:51:12.856Z,7.90
2018-08-24T19:53:40.504Z,7.97
2018-08-24T19:56:08.676Z,8.23
2018-08-24T19:58:41.890Z,7.93
2018-08-24T20:01:09.469Z,9.23
2018-08-24T20:03:37.084Z,7.33
2018-08-24T20:06:10.400Z,8.43
2018-08-24T20:08:43.710Z,7.50
2018-08-24T20:11:11.311Z,8.93
2018-08-24T20:13:38.914Z,8.70
2018-08-24T20:16:12.172Z,9.33
2018-08-24T20:18:40.521Z,8.07
2018-08-24T20:21:08.173Z,8.40
2018-08-24T20:23:35.755Z,9.40
2018-08-24T20:26:03.334Z,8.90
2018-08-24T20:28:30.905Z,9.50
2018-08-24T20:30:58.468Z,8.13
2018-08-24T20:33:26.061Z,9.23
2018-08-24T20:35:53.644Z,9.37
2018-08-24T20:38:21.254Z,9.60
2018-08-24T20:40:48.834Z,12.00
2018-08-24T20:43:16.448Z,11.47
2018-08-24T20:45:44.016Z,9.53
2018-08-24T20:48:11.618Z,10.70
2018-08-24T20:50:39.181Z,9.43
2018-08-24T20:53:06.830Z,10.17
2018-08-24T20:55:35.487Z,9.97
2018-08-24T20:58:03.000Z,9.53
2018-08-24T21:00:30.596Z,10.07
2018-08-24T21:02:58.207Z,9.83
2018-08-24T21:05:25.783Z,9.23
2018-08-24T21:07:53.353Z,9.47
2018-08-24T21:10:20.998Z,9.77
2018-08-24T21:12:48.588Z,9.80
2018-08-24T21:15:16.190Z,10.07
2018-08-24T21:17:43.830Z,10.30
2018-08-24T21:20:11.494Z,12.60
2018-08-24T21:22:39.097Z,11.97
2018-08-24T21:25:07.086Z,15.20
2018-08-24T21:27:34.649Z,15.07
2018-08-24T21:30:02.260Z,16.07
2018-08-24T21:32:29.786Z,14.80
2018-08-24T21:34:57.310Z,14.27
2018-08-24T21:37:24.829Z,14.13
2018-08-24T21:39:52.399Z,13.30
2018-08-24T21:42:19.921Z,10.90
2018-08-24T21:44:47.517Z,11.13
2018-08-24T21:47:15.054Z,10.90
2018-08-24T21:49:42.618Z,11.73
2018-08-24T21:52:10.220Z,11.93
2018-08-24T21:54:37.803Z,11.80
2018-08-24T21:57:05.351Z,9.93
2018-08-24T21:59:32.902Z,11.03
2018-08-24T22:02:00.449Z,11.43
2018-08-24T22:04:28.098Z,10.83
2018-08-24T22:06:55.603Z,12.30
2018-08-24T22:09:23.183Z,18.47
2018-08-24T22:11:50.723Z,26.40
2018-08-24T22:14:18.289Z,17.37
2018-08-24T22:16:45.830Z,11.80
2018-08-24T22:19:13.351Z,12.17
2018-08-24T22:21:40.924Z,13.30
2018-08-24T22:24:08.669Z,14.03
2018-08-24T22:26:36.565Z,12.10
2018-08-24T22:29:04.311Z,11.43
2018-08-24T22:31:31.810Z,11.27
2018-08-24T22:33:59.354Z,12.03
2018-08-24T22:36:26.920Z,12.87
2018-08-24T22:38:54.477Z,14.90
2018-08-24T22:41:22.085Z,14.77
2018-08-24T22:43:49.584Z,13.40
2018-08-24T22:46:17.114Z,12.40
2018-08-24T22:48:44.647Z,10.97
2018-08-24T22:51:12.162Z,10.53
2018-08-24T22:53:39.695Z,11.10
2018-08-24T22:56:07.235Z,10.00
2018-08-24T22:58:34.767Z,9.13
2018-08-24T23:01:02.292Z,8.97
2018-08-24T23:03:29.859Z,9.47
2018-08-24T23:05:57.441Z,8.70
2018-08-24T23:08:24.947Z,10.40
2018-08-24T23:10:52.453Z,8.97
2018-08-24T23:13:19.953Z,8.70
2018-08-24T23:15:47.460Z,10.20
2018-08-24T23:18:14.996Z,10.57
2018-08-24T23:20:42.575Z,8.90
2018-08-24T23:23:10.135Z,9.10
2018-08-24T23:25:37.623Z,9.70
2018-08-24T23:28:05.233Z,9.60
2018-08-24T23:30:32.848Z,8.83
2018-08-24T23:33:00.413Z,8.90
2018-08-24T23:35:27.907Z,7.73
2018-08-24T23:37:55.425Z,9.10
2018-08-24T23:40:22.903Z,8.90
2018-08-24T23:42:50.378Z,8.20
2018-08-24T23:45:17.966Z,9.70
2018-08-24T23:47:45.461Z,9.27
2018-08-24T23:50:13.054Z,8.57
2018-08-24T23:52:40.594Z,9.23
2018-08-24T23:55:08.096Z,9.83
2018-08-24T23:57:35.576Z,9.77
